Time;durP1;ratioP1;P1;durP2;ratioP2;P2;SDS_P1;SDS_P2;PMS_P1;PMS_P2;Temp;Humidity;BMP_temperature;BMP_pressure;BME280_temperature;BME280_humidity;BME280_pressure;Samples;Min_cycle;Max_cycle;Signal;HPM_P1;HPM_P2
2022/12/04 00:09:45;;;;;;;0.82;0.40;;;4.00;99.90;;;;;;20203808;23;20110;-60
2022/12/04 00:19:48;;;;;;;0.65;0.30;;;3.60;99.90;;;;;;20197637;23;20057;-59
2022/12/04 00:29:51;;;;;;;0.47;0.20;;;3.40;99.90;;;;;;20263183;23;20066;-49
2022/12/04 00:39:53;;;;;;;0.73;0.28;;;3.30;99.90;;;;;;20189213;23;1228720;-59
2022/12/04 00:49:56;;;;;;;0.63;0.17;;;3.40;99.90;;;;;;20203573;23;20110;-58
2022/12/04 00:59:58;;;;;;;0.30;0.10;;;3.40;99.90;;;;;;20217142;23;20073;-58
2022/12/04 01:10:00;;;;;;;0.00;0.00;;;3.40;99.90;;;;;;20218922;23;20118;-59
2022/12/04 01:20:03;;;;;;;0.10;0.10;;;3.40;99.90;;;;;;20246232;23;20114;-59
2022/12/04 01:30:07;;;;;;;0.10;0.00;;;3.40;99.90;;;;;;20241904;23;20404;-59
2022/12/04 01:40:13;;;;;;;0.00;0.00;;;3.10;99.90;;;;;;20234621;23;20065;-59
2022/12/04 01:50:16;;;;;;;0.10;0.05;;;3.30;99.90;;;;;;20234695;23;20070;-59
2022/12/04 02:11:02;;;;;;;0.30;0.08;;;3.50;99.90;;;;;;20164664;23;20066;-59
2022/12/04 02:21:12;;;;;;;0.10;0.00;;;3.70;99.90;;;;;;20173187;23;20500;-61
2022/12/04 02:31:39;;;;;;;0.20;0.10;;;3.90;99.90;;;;;;20209284;23;20057;-51
2022/12/04 02:42:23;;;;;;;0.43;0.28;;;3.60;99.90;;;;;;20201970;23;20070;-60
2022/12/04 02:52:51;;;;;;;0.10;0.10;;;3.80;99.90;;;;;;20162417;23;20058;-60
2022/12/04 03:02:57;;;;;;;0.32;0.08;;;3.70;99.90;;;;;;20189120;23;20416;-60
2022/12/04 03:13:10;;;;;;;0.57;0.32;;;3.70;99.90;;;;;;20332293;23;20061;-60
2022/12/04 03:23:47;;;;;;;0.80;0.50;;;4.00;99.90;;;;;;20601390;23;20114;-66
2022/12/04 03:33:55;;;;;;;2.08;0.90;;;4.00;99.90;;;;;;20248161;23;20054;-60
2022/12/04 03:44:05;;;;;;;1.05;0.65;;;3.90;99.90;;;;;;20249410;23;20126;-57
2022/12/04 03:54:20;;;;;;;0.97;0.60;;;3.90;99.90;;;;;;20217698;23;20061;-58
2022/12/04 04:04:29;;;;;;;1.65;0.70;;;3.80;99.90;;;;;;20217678;23;20091;-62
2022/12/04 04:25:08;;;;;;;1.35;0.57;;;3.90;99.90;;;;;;20218555;23;20083;-58
2022/12/04 04:35:32;;;;;;;0.68;0.45;;;3.90;99.90;;;;;;20182319;23;20049;-68
2022/12/04 04:46:06;;;;;;;1.50;0.70;;;3.90;99.90;;;;;;20149598;23;20058;-58
2022/12/04 04:56:16;;;;;;;0.70;0.50;;;3.90;99.90;;;;;;20190249;23;20087;31
2022/12/04 05:06:18;;;;;;;0.85;0.70;;;3.90;99.90;;;;;;20139732;23;20130;-60
2022/12/04 05:16:21;;;;;;;2.67;0.80;;;3.80;99.90;;;;;;20269959;23;20573;-61
2022/12/04 05:26:24;;;;;;;1.67;0.65;;;3.70;99.90;;;;;;20211507;23;20057;-60
2022/12/04 05:36:26;;;;;;;0.65;0.52;;;3.60;99.90;;;;;;20229869;23;20089;-59
2022/12/04 05:46:29;;;;;;;0.40;0.30;;;3.60;99.90;;;;;;20285916;23;20058;-60
2022/12/04 05:56:31;;;;;;;0.55;0.40;;;3.70;99.90;;;;;;20207803;23;20070;-60
2022/12/04 06:06:33;;;;;;;0.68;0.30;;;3.90;99.90;;;;;;20229560;23;20122;-61
2022/12/04 06:16:39;;;;;;;0.30;0.30;;;4.10;99.90;;;;;;20256493;23;20057;-60
2022/12/04 06:26:42;;;;;;;0.75;0.20;;;4.00;99.90;;;;;;20338151;23;20054;-61
2022/12/04 06:36:45;;;;;;;1.60;0.40;;;4.10;99.90;;;;;;20218789;23;20042;-58
2022/12/04 06:46:48;;;;;;;0.45;0.20;;;4.20;99.90;;;;;;20192472;23;20054;-59
2022/12/04 06:57:06;;;;;;;0.43;0.20;;;4.00;99.90;;;;;;20239857;23;20083;-59
2022/12/04 07:07:09;;;;;;;0.50;0.10;;;3.90;99.90;;;;;;20320559;23;20065;-59
2022/12/04 07:17:11;;;;;;;1.40;0.20;;;3.60;99.90;;;;;;20216165;23;20484;-58
2022/12/04 07:27:14;;;;;;;0.17;0.10;;;3.80;99.90;;;;;;20246006;23;20110;-60
2022/12/04 07:37:17;;;;;;;0.10;0.00;;;3.80;99.90;;;;;;20216283;23;20559;-59
2022/12/04 07:47:19;;;;;;;0.00;0.00;;;3.60;99.90;;;;;;20204272;23;20126;-56
2022/12/04 07:57:22;;;;;;;0.00;0.00;;;3.70;99.90;;;;;;20267759;23;20054;-58
2022/12/04 08:07:25;;;;;;;0.10;0.00;;;3.80;99.90;;;;;;20217896;23;20054;-59
2022/12/04 08:17:27;;;;;;;4.68;0.00;;;3.80;99.90;;;;;;20246184;23;20724;-58
2022/12/04 08:27:30;;;;;;;0.63;0.20;;;4.10;99.90;;;;;;20213723;23;20512;-60
2022/12/04 08:37:33;;;;;;;0.57;0.20;;;4.10;99.90;;;;;;20136159;23;20059;-60
2022/12/04 08:47:35;;;;;;;0.00;0.00;;;3.90;99.90;;;;;;20161827;24;20526;-60
2022/12/04 08:57:37;;;;;;;0.00;0.00;;;3.60;99.90;;;;;;20153565;23;20513;-61
2022/12/04 09:07:53;;;;;;;0.00;0.00;;;3.90;99.90;;;;;;20190974;23;20061;-43
2022/12/04 09:17:56;;;;;;;0.00;0.00;;;3.80;99.90;;;;;;20118966;24;1282008;-50
2022/12/04 09:28:03;;;;;;;0.08;0.08;;;3.90;99.90;;;;;;20122669;23;20122;31
2022/12/04 09:38:06;;;;;;;0.00;0.00;;;3.80;99.90;;;;;;20078437;23;20107;-57
2022/12/04 09:48:11;;;;;;;0.20;0.10;;;3.70;99.90;;;;;;20286055;23;20058;-59
2022/12/04 09:58:35;;;;;;;0.57;0.10;;;3.70;99.90;;;;;;20205548;23;20058;-56
2022/12/04 10:08:43;;;;;;;0.10;0.00;;;3.60;99.90;;;;;;20196389;23;20053;-59
2022/12/04 10:19:15;;;;;;;0.15;0.10;;;3.80;99.90;;;;;;20196490;24;20109;-56
2022/12/04 10:29:23;;;;;;;0.40;0.00;;;3.80;99.90;;;;;;20212501;23;20058;-60
2022/12/04 10:39:34;;;;;;;0.30;0.00;;;4.00;99.90;;;;;;20235558;23;21429;-55
2022/12/04 10:49:38;;;;;;;0.37;0.10;;;3.90;99.90;;;;;;20234651;23;20065;-62
2022/12/04 11:00:05;;;;;;;0.20;0.10;;;3.60;99.90;;;;;;20171051;23;20121;-56
2022/12/04 11:10:37;;;;;;;0.77;0.10;;;3.50;99.90;;;;;;20102311;23;20053;-59
2022/12/04 11:31:56;;;;;;;0.15;0.00;;;3.30;99.90;;;;;;20191762;23;20062;-50
2022/12/04 11:42:05;;;;;;;0.10;0.00;;;3.10;99.90;;;;;;20307536;23;20502;-57
2022/12/04 11:52:27;;;;;;;0.10;0.00;;;2.90;99.90;;;;;;20189794;23;20588;-64
2022/12/04 12:02:32;;;;;;;0.15;0.00;;;2.70;99.90;;;;;;20187116;23;20061;-61
2022/12/04 12:13:02;;;;;;;0.40;0.10;;;2.70;99.90;;;;;;20248545;23;20504;-58
2022/12/04 12:23:49;;;;;;;2.50;1.10;;;2.80;99.90;;;;;;20245341;23;20588;-60
2022/12/04 12:34:16;;;;;;;0.50;0.00;;;3.00;99.90;;;;;;20199838;23;20367;-56
2022/12/04 12:44:44;;;;;;;0.22;0.10;;;3.10;99.90;;;;;;20183205;23;20495;-60
2022/12/04 13:05:39;;;;;;;0.22;0.10;;;3.30;99.90;;;;;;20104179;23;20111;-59
2022/12/04 13:15:48;;;;;;;0.10;0.10;;;3.50;99.90;;;;;;20110447;23;20236;-58
2022/12/04 13:26:33;;;;;;;0.00;0.00;;;3.70;99.90;;;;;;20232871;23;20070;-60
2022/12/04 13:37:01;;;;;;;0.00;0.00;;;4.00;99.90;;;;;;20153398;23;20201;-59
2022/12/04 13:47:07;;;;;;;0.00;0.00;;;4.20;99.90;;;;;;20178629;23;20118;-60
2022/12/04 13:57:21;;;;;;;0.10;0.10;;;4.20;99.90;;;;;;20239631;23;20428;-56
2022/12/04 14:07:29;;;;;;;0.10;0.10;;;4.30;99.90;;;;;;20190590;23;20125;-59
2022/12/04 14:17:38;;;;;;;79.50;2.05;;;4.00;99.90;;;;;;20222544;23;20065;-57
2022/12/04 14:27:41;;;;;;;19.90;0.85;;;3.90;99.90;;;;;;20245832;23;20126;-60
2022/12/04 14:37:57;;;;;;;0.10;0.10;;;3.80;99.90;;;;;;20263246;23;20065;-65
2022/12/04 14:48:14;;;;;;;107.13;3.28;;;3.70;99.90;;;;;;20192228;23;20512;31
2022/12/04 15:19:30;;;;;;;0.52;0.50;;;3.50;99.90;;;;;;20147315;23;20058;31
2022/12/04 15:29:36;;;;;;;60.83;3.03;;;3.50;99.90;;;;;;20156837;23;20094;-61
2022/12/04 15:39:39;;;;;;;7.45;1.20;;;3.40;99.90;;;;;;20248207;23;20524;-56
2022/12/04 15:49:43;;;;;;;0.80;0.65;;;3.40;99.90;;;;;;20202735;23;20079;-60
2022/12/04 15:59:50;;;;;;;1.63;1.27;;;3.40;99.90;;;;;;20201972;23;20058;-59
2022/12/04 16:09:59;;;;;;;11.93;2.03;;;3.30;99.90;;;;;;20245292;23;20057;-59
2022/12/04 16:20:10;;;;;;;20.20;3.80;;;3.30;99.90;;;;;;20199031;23;20113;-60
2022/12/04 16:30:13;;;;;;;5.93;2.78;;;3.40;99.90;;;;;;20209317;23;20126;-58
2022/12/04 16:40:15;;;;;;;3.03;2.42;;;3.40;99.90;;;;;;20240750;23;20578;-60
2022/12/04 16:50:19;;;;;;;3.25;2.17;;;3.40;99.90;;;;;;20281104;23;20516;-51
2022/12/04 17:00:23;;;;;;;4.35;2.85;;;3.40;99.90;;;;;;20197340;23;20757;-60
2022/12/04 17:10:29;;;;;;;86.82;4.38;;;3.40;99.90;;;;;;20182123;23;20050;-67
2022/12/04 17:20:47;;;;;;;0.80;0.30;;;3.40;99.90;;;;;;20168912;23;20149;-57
2022/12/04 17:30:49;;;;;;;0.98;0.20;;;3.30;99.90;;;;;;20182064;23;20058;-61
2022/12/04 17:41:02;;;;;;;0.63;0.10;;;3.20;99.90;;;;;;20242877;23;20062;-64
2022/12/04 17:51:07;;;;;;;2.25;0.30;;;3.20;99.90;;;;;;20212821;23;20057;-61
2022/12/04 18:01:12;;;;;;;0.35;0.20;;;3.00;99.90;;;;;;20228692;23;20052;-55
2022/12/04 18:11:17;;;;;;;1.48;0.63;;;3.10;99.90;;;;;;20213708;23;2060541;-61
2022/12/04 18:21:23;;;;;;;1.85;0.98;;;2.70;99.90;;;;;;20214745;23;20050;31
2022/12/04 18:31:26;;;;;;;2.22;1.08;;;2.60;99.90;;;;;;20136849;23;20122;-57
2022/12/04 18:41:30;;;;;;;2.25;0.63;;;2.80;99.90;;;;;;20277747;23;20495;-61
2022/12/04 18:51:46;;;;;;;0.57;0.38;;;2.80;99.90;;;;;;20256727;23;20053;-56
2022/12/04 19:01:50;;;;;;;1.00;0.50;;;2.90;99.90;;;;;;20227840;23;20509;-58
2022/12/04 19:11:53;;;;;;;1.58;0.40;;;2.70;99.90;;;;;;20220712;23;20521;-56
2022/12/04 19:22:03;;;;;;;2.78;0.60;;;2.50;99.90;;;;;;20194394;23;20057;31
2022/12/04 19:32:06;;;;;;;1.83;0.82;;;2.50;99.90;;;;;;20102587;23;20420;-52
2022/12/04 19:42:09;;;;;;;2.72;0.85;;;2.70;99.90;;;;;;20224099;23;20066;-62
2022/12/04 19:52:13;;;;;;;2.13;1.30;;;2.80;99.90;;;;;;20254711;23;20465;-58
2022/12/04 20:02:16;;;;;;;2.70;2.10;;;2.90;99.90;;;;;;20232768;23;20130;-62
2022/12/04 20:12:18;;;;;;;2.80;1.52;;;2.90;99.90;;;;;;20227070;23;20117;-57
2022/12/04 20:22:21;;;;;;;3.72;2.60;;;3.00;99.90;;;;;;20189455;23;20065;-55
2022/12/04 20:32:24;;;;;;;3.00;2.08;;;3.00;99.90;;;;;;20270294;23;20118;-60
2022/12/04 20:42:27;;;;;;;0.82;0.50;;;3.00;99.90;;;;;;20213383;23;20054;-58
2022/12/04 20:52:30;;;;;;;0.88;0.40;;;3.00;99.90;;;;;;20251570;23;20057;-61
2022/12/04 21:02:33;;;;;;;0.70;0.30;;;3.00;99.90;;;;;;20264481;23;20118;-56
2022/12/04 21:23:18;;;;;;;2.50;0.10;;;3.10;99.90;;;;;;20214239;23;20118;31
2022/12/04 21:33:21;;;;;;;0.82;0.30;;;3.10;99.90;;;;;;20138551;23;20126;-57
2022/12/04 21:43:23;;;;;;;1.02;0.60;;;3.00;99.90;;;;;;20232536;23;20106;-48
2022/12/04 21:53:26;;;;;;;2.53;0.35;;;2.90;99.90;;;;;;20254195;23;20057;-58
2022/12/04 22:03:29;;;;;;;1.98;0.63;;;2.80;99.90;;;;;;20249807;23;20834;-49
2022/12/04 22:13:32;;;;;;;0.65;0.35;;;2.70;99.90;;;;;;20298854;23;20065;-59
2022/12/04 22:23:35;;;;;;;1.23;0.82;;;2.90;99.90;;;;;;20193467;23;20054;-61
2022/12/04 22:33:38;;;;;;;2.20;1.08;;;3.10;99.90;;;;;;20248274;23;20592;-56
2022/12/04 22:43:41;;;;;;;2.00;0.95;;;3.20;99.90;;;;;;20254462;23;20057;-61
2022/12/04 22:53:48;;;;;;;2.13;0.60;;;3.10;99.90;;;;;;20231342;23;20524;-59
2022/12/04 23:03:51;;;;;;;0.75;0.30;;;3.20;99.90;;;;;;20226663;23;20093;-60
2022/12/04 23:14:27;;;;;;;1.02;0.40;;;3.10;99.90;;;;;;20208645;23;20094;-60
2022/12/04 23:24:37;;;;;;;2.00;0.45;;;3.00;99.90;;;;;;20190107;23;20054;31
2022/12/04 23:34:40;;;;;;;1.10;0.60;;;2.80;99.90;;;;;;20158957;23;20484;-60
2022/12/04 23:44:42;;;;;;;2.63;0.52;;;3.00;99.90;;;;;;20227496;23;20069;-57
2022/12/04 23:54:45;;;;;;;1.92;0.40;;;2.90;99.90;;;;;;20194988;23;20066;-48
